createdAt,value
2023-02-12T00:01:41.732Z,5.22
2023-02-12T00:04:10.170Z,5.24
2023-02-12T00:06:39.446Z,5.21
2023-02-12T00:09:07.818Z,5.15
2023-02-12T00:11:36.216Z,5.11
2023-02-12T00:14:06.286Z,5.08
2023-02-12T00:16:34.727Z,5.10
2023-02-12T00:19:03.044Z,5.15
2023-02-12T00:21:31.475Z,5.12
2023-02-12T00:24:00.336Z,5.14
2023-02-12T00:26:29.271Z,5.14
2023-02-12T00:28:57.735Z,5.14
2023-02-12T00:31:30.784Z,5.18
2023-02-12T00:34:00.444Z,5.15
2023-02-12T00:36:31.135Z,5.10
2023-02-12T00:39:01.197Z,5.13
2023-02-12T00:41:29.828Z,5.12
2023-02-12T00:43:58.256Z,5.09
2023-02-12T00:46:28.225Z,5.11
2023-02-12T00:48:56.675Z,5.12
2023-02-12T00:51:25.142Z,5.13
2023-02-12T00:53:54.119Z,5.19
2023-02-12T00:56:22.503Z,5.20
2023-02-12T00:58:51.023Z,5.16
2023-02-12T01:01:19.809Z,5.05
2023-02-12T01:03:52.571Z,5.04
2023-02-12T01:06:21.093Z,4.94
2023-02-12T01:08:51.959Z,5.03
2023-02-12T01:11:20.771Z,5.06
2023-02-12T01:13:50.392Z,5.03
2023-02-12T01:16:22.248Z,5.07
2023-02-12T01:18:56.013Z,5.10
2023-02-12T01:21:27.437Z,5.06
2023-02-12T01:23:58.621Z,4.96
2023-02-12T01:26:29.134Z,5.01
2023-02-12T01:29:01.307Z,5.08
2023-02-12T01:31:32.298Z,5.07
2023-02-12T01:34:09.536Z,4.98
2023-02-12T01:36:39.252Z,4.82
2023-02-12T01:39:07.771Z,4.84
2023-02-12T01:41:40.366Z,4.79
2023-02-12T01:44:15.448Z,4.87
2023-02-12T01:46:45.624Z,4.86
2023-02-12T01:49:24.528Z,4.89
2023-02-12T01:51:57.037Z,4.79
2023-02-12T01:54:43.057Z,4.89
2023-02-12T01:57:21.321Z,4.89
2023-02-12T01:59:59.542Z,4.66
2023-02-12T02:02:35.866Z,4.64
2023-02-12T02:05:07.433Z,4.90
2023-02-12T02:07:35.988Z,4.83
2023-02-12T02:10:06.322Z,4.88
2023-02-12T02:12:52.173Z,4.89
2023-02-12T02:15:31.972Z,4.93
2023-02-12T02:18:03.977Z,4.93
2023-02-12T02:21:14.145Z,5.01
2023-02-12T02:24:13.977Z,5.05
2023-02-12T02:27:15.995Z,5.02
2023-02-12T02:30:16.379Z,4.95
2023-02-12T02:32:54.904Z,4.92
2023-02-12T02:35:30.777Z,4.95
2023-02-12T02:38:08.607Z,4.98
2023-02-12T02:40:43.353Z,4.97
2023-02-12T02:43:19.223Z,5.00
2023-02-12T02:45:52.294Z,4.89
2023-02-12T02:48:27.757Z,4.79
2023-02-12T02:51:00.685Z,4.82
2023-02-12T02:53:34.276Z,4.86
2023-02-12T02:56:07.839Z,4.84
2023-02-12T02:58:42.362Z,4.89
2023-02-12T03:01:19.002Z,4.86
2023-02-12T03:03:54.816Z,4.82
2023-02-12T03:06:31.308Z,4.82
2023-02-12T03:09:07.988Z,4.88
2023-02-12T03:11:37.078Z,4.89
2023-02-12T03:14:11.262Z,4.88
2023-02-12T03:16:42.783Z,4.90
2023-02-12T03:19:19.260Z,4.92
2023-02-12T03:21:51.267Z,4.91
2023-02-12T03:24:25.390Z,4.86
2023-02-12T03:27:01.635Z,4.72
2023-02-12T03:29:30.039Z,4.71
2023-02-12T03:32:13.934Z,4.86
2023-02-12T03:34:51.577Z,4.84
2023-02-12T03:37:26.417Z,4.85
2023-02-12T03:39:59.361Z,4.84
2023-02-12T03:42:36.028Z,4.87
2023-02-12T03:45:11.746Z,4.91
2023-02-12T03:47:43.870Z,4.88
2023-02-12T03:50:18.104Z,4.85
2023-02-12T03:52:48.099Z,4.89
2023-02-12T03:55:17.411Z,4.85
2023-02-12T03:57:48.924Z,4.84
2023-02-12T04:00:21.397Z,4.89
2023-02-12T04:02:50.780Z,4.89
2023-02-12T04:05:22.338Z,4.78
2023-02-12T04:07:52.865Z,4.77
2023-02-12T04:10:26.107Z,4.79
2023-02-12T04:13:00.915Z,4.73
2023-02-12T04:15:43.918Z,4.80
2023-02-12T04:18:20.077Z,4.67
2023-02-12T04:20:57.745Z,4.65
2023-02-12T04:23:41.610Z,4.64
2023-02-12T04:26:18.008Z,4.71
2023-02-12T04:28:53.312Z,4.72
2023-02-12T04:31:29.051Z,4.79
2023-02-12T04:34:06.106Z,4.89
2023-02-12T04:36:39.826Z,4.82
2023-02-12T04:39:12.055Z,4.74
2023-02-12T04:41:40.576Z,4.79
2023-02-12T04:44:17.274Z,4.86
2023-02-12T04:46:45.725Z,4.88
2023-02-12T04:49:16.920Z,4.81
2023-02-12T04:51:47.754Z,4.81
2023-02-12T04:54:17.576Z,4.79
2023-02-12T04:56:46.741Z,4.79
2023-02-12T04:59:16.055Z,4.74
2023-02-12T05:01:45.501Z,4.78
2023-02-12T05:04:16.027Z,4.80
2023-02-12T05:06:46.883Z,4.79
2023-02-12T05:09:18.131Z,4.76
2023-02-12T05:11:46.953Z,4.68
2023-02-12T05:14:15.774Z,4.62
2023-02-12T05:16:44.378Z,4.67
2023-02-12T05:19:13.103Z,4.70
2023-02-12T05:21:41.592Z,4.82
2023-02-12T05:24:11.240Z,4.78
2023-02-12T05:26:39.631Z,4.82
2023-02-12T05:29:07.983Z,4.79
2023-02-12T05:31:36.534Z,4.86
2023-02-12T05:34:05.069Z,4.79
2023-02-12T05:36:33.535Z,4.83
2023-02-12T05:39:01.925Z,4.84
2023-02-12T05:41:35.056Z,4.81
2023-02-12T05:44:04.036Z,4.81
2023-02-12T05:46:32.722Z,4.79
2023-02-12T05:49:01.212Z,4.77
2023-02-12T05:51:32.010Z,4.78
2023-02-12T05:54:03.635Z,4.80
2023-02-12T05:56:35.464Z,4.87
2023-02-12T05:59:07.265Z,4.68
2023-02-12T06:01:37.891Z,4.67
2023-02-12T06:04:09.045Z,4.74
2023-02-12T06:06:37.649Z,4.79
2023-02-12T06:09:06.012Z,4.80
2023-02-12T06:11:35.864Z,4.80
2023-02-12T06:14:04.961Z,4.75
2023-02-12T06:16:35.113Z,4.74
2023-02-12T06:19:06.320Z,4.74
2023-02-12T06:21:35.037Z,4.81
2023-02-12T06:24:03.424Z,4.79
2023-02-12T06:26:32.044Z,4.89
2023-02-12T06:29:02.432Z,4.90
2023-02-12T06:31:32.933Z,4.84
2023-02-12T06:34:04.415Z,4.88
2023-02-12T06:36:33.136Z,4.85
2023-02-12T06:39:01.989Z,4.81
2023-02-12T06:41:30.576Z,4.79
2023-02-12T06:43:59.074Z,4.80
2023-02-12T06:46:29.058Z,4.83
2023-02-12T06:48:59.240Z,4.83
2023-02-12T06:51:29.042Z,4.83
2023-02-12T06:53:57.634Z,4.85
2023-02-12T06:56:27.242Z,4.83
2023-02-12T06:58:57.776Z,4.79
2023-02-12T07:01:29.804Z,4.78
2023-02-12T07:04:00.326Z,4.81
2023-02-12T07:06:36.850Z,4.70
2023-02-12T07:09:06.308Z,4.84
2023-02-12T07:11:38.298Z,4.89
2023-02-12T07:14:07.590Z,4.87
2023-02-12T07:16:37.306Z,4.93
2023-02-12T07:19:05.709Z,4.91
2023-02-12T07:21:34.282Z,4.97
2023-02-12T07:24:02.603Z,5.00
2023-02-12T07:26:30.935Z,5.00
2023-02-12T07:28:59.483Z,5.06
2023-02-12T07:31:28.381Z,5.07
2023-02-12T07:33:59.820Z,5.05
2023-02-12T07:36:33.874Z,5.07
2023-02-12T07:39:02.542Z,5.06
2023-02-12T07:41:33.012Z,4.99
2023-02-12T07:44:03.588Z,4.95
2023-02-12T07:46:33.945Z,5.04
2023-02-12T07:49:06.252Z,5.12
2023-02-12T07:51:35.644Z,5.22
2023-02-12T07:54:05.106Z,5.42
2023-02-12T07:56:35.866Z,5.41
2023-02-12T07:59:06.965Z,5.36
2023-02-12T08:01:37.406Z,5.43
2023-02-12T08:04:10.162Z,5.45
2023-02-12T08:06:40.953Z,5.48
2023-02-12T08:09:12.017Z,5.52
2023-02-12T08:11:41.783Z,5.55
2023-02-12T08:14:12.501Z,5.54
2023-02-12T08:16:42.572Z,5.57
2023-02-12T08:19:23.953Z,5.60
2023-02-12T08:21:56.039Z,5.69
2023-02-12T08:24:24.843Z,5.67
2023-02-12T08:26:53.541Z,5.68
2023-02-12T08:29:24.182Z,5.72
2023-02-12T08:31:58.009Z,5.70
2023-02-12T08:34:30.487Z,5.65
2023-02-12T08:36:59.441Z,5.82
2023-02-12T08:39:30.442Z,5.86
2023-02-12T08:42:00.443Z,5.92
2023-02-12T08:44:29.294Z,6.02
2023-02-12T08:46:58.087Z,6.08
2023-02-12T08:49:29.994Z,6.16
2023-02-12T08:51:59.494Z,6.12
2023-02-12T08:54:29.089Z,6.30
2023-02-12T08:56:58.982Z,6.32
2023-02-12T08:59:27.934Z,6.29
2023-02-12T09:01:56.632Z,6.35
2023-02-12T09:04:27.046Z,6.37
2023-02-12T09:06:57.708Z,6.50
2023-02-12T09:09:26.173Z,6.50
2023-02-12T09:11:54.645Z,6.49
2023-02-12T09:14:24.869Z,6.55
2023-02-12T09:16:57.381Z,6.50
2023-02-12T09:19:26.064Z,6.53
2023-02-12T09:21:57.189Z,6.63
2023-02-12T09:24:28.232Z,6.72
2023-02-12T09:26:56.997Z,6.75
2023-02-12T09:29:25.370Z,6.82
2023-02-12T09:31:54.594Z,6.91
2023-02-12T09:34:23.411Z,6.95
2023-02-12T09:36:51.864Z,6.89
2023-02-12T09:39:21.666Z,6.92
2023-02-12T09:42:31.466Z,7.07
2023-02-12T09:45:08.652Z,7.15
2023-02-12T09:47:43.836Z,7.13
2023-02-12T09:50:28.165Z,7.24
2023-02-12T09:52:59.370Z,7.21
2023-02-12T09:55:31.929Z,7.31
2023-02-12T09:58:03.240Z,7.35
2023-02-12T10:00:33.716Z,7.38
2023-02-12T10:03:05.713Z,7.37
2023-02-12T10:05:40.615Z,7.50
2023-02-12T10:08:41.695Z,7.59
2023-02-12T10:11:38.380Z,7.64
2023-02-12T10:14:23.106Z,7.60
2023-02-12T10:17:03.518Z,7.58
2023-02-12T10:20:01.013Z,7.63
2023-02-12T10:22:51.322Z,7.71
2023-02-12T10:25:30.774Z,7.75
2023-02-12T10:28:03.162Z,7.90
2023-02-12T10:30:41.879Z,7.87
2023-02-12T10:33:17.212Z,7.99
2023-02-12T10:35:50.711Z,7.94
2023-02-12T10:38:22.592Z,7.93
2023-02-12T10:40:51.526Z,7.99
2023-02-12T10:43:21.484Z,7.94
2023-02-12T10:45:50.548Z,8.00
2023-02-12T10:48:22.255Z,8.16
2023-02-12T10:51:01.466Z,8.19
2023-02-12T10:53:38.633Z,8.21
2023-02-12T10:56:19.298Z,8.12
2023-02-12T10:58:59.287Z,8.16
2023-02-12T11:01:30.319Z,8.08
2023-02-12T11:04:02.040Z,8.12
2023-02-12T11:06:32.207Z,8.19
2023-02-12T11:09:02.240Z,8.21
2023-02-12T11:11:32.368Z,8.37
2023-02-12T11:14:07.178Z,8.31
2023-02-12T11:16:39.239Z,8.34
2023-02-12T11:19:19.700Z,8.32
2023-02-12T11:21:49.060Z,8.49
2023-02-12T11:24:32.075Z,8.65
2023-02-12T11:27:13.995Z,8.80
2023-02-12T11:29:45.315Z,8.57
2023-02-12T11:32:19.708Z,8.92
2023-02-12T11:35:06.797Z,8.89
2023-02-12T11:37:44.808Z,8.93
2023-02-12T11:40:21.289Z,8.87
2023-02-12T11:42:52.911Z,8.86
2023-02-12T11:45:29.810Z,8.92
2023-02-12T11:47:59.523Z,8.87
2023-02-12T11:50:34.949Z,8.84
2023-02-12T11:53:10.363Z,8.81
2023-02-12T11:55:41.905Z,8.84
2023-02-12T11:58:17.338Z,8.82
2023-02-12T12:00:54.875Z,8.79
2023-02-12T12:03:29.239Z,8.77
2023-02-12T12:06:03.169Z,8.75
2023-02-12T12:08:40.526Z,8.79
2023-02-12T12:11:15.714Z,8.92
2023-02-12T12:13:51.361Z,8.78
2023-02-12T12:16:46.616Z,8.90
2023-02-12T12:19:50.233Z,8.72
2023-02-12T12:22:29.431Z,8.91
2023-02-12T12:25:06.486Z,8.63
2023-02-12T12:28:00.115Z,8.76
2023-02-12T12:30:42.575Z,8.71
2023-02-12T12:33:21.219Z,8.83
2023-02-12T12:36:03.538Z,8.88
2023-02-12T12:38:44.782Z,8.77
2023-02-12T12:41:26.428Z,8.96
2023-02-12T12:44:24.313Z,8.92
2023-02-12T12:47:06.928Z,8.88
2023-02-12T12:49:57.403Z,8.79
2023-02-12T12:52:55.471Z,8.81
2023-02-12T12:55:43.942Z,8.75
2023-02-12T12:58:22.250Z,8.60
2023-02-12T13:01:08.556Z,8.56
2023-02-12T13:04:00.888Z,8.73
2023-02-12T13:06:47.788Z,8.43
2023-02-12T13:09:30.346Z,8.45
2023-02-12T13:12:20.944Z,8.64
2023-02-12T13:15:00.787Z,8.32
2023-02-12T13:17:41.164Z,8.49
2023-02-12T13:20:16.896Z,8.65
2023-02-12T13:22:51.655Z,8.64
2023-02-12T13:25:30.795Z,8.69
2023-02-12T13:28:01.174Z,8.54
2023-02-12T13:30:34.721Z,8.84
2023-02-12T13:33:10.875Z,8.62
2023-02-12T13:35:44.890Z,8.39
2023-02-12T13:38:20.755Z,8.63
2023-02-12T13:40:50.837Z,8.41
2023-02-12T13:43:43.913Z,8.81
2023-02-12T13:46:20.462Z,8.80
2023-02-12T13:48:58.729Z,8.76
2023-02-12T13:51:41.974Z,8.43
2023-02-12T13:54:39.008Z,8.62
2023-02-12T13:57:12.979Z,8.64
2023-02-12T14:00:00.623Z,8.46
2023-02-12T14:02:49.532Z,8.43
2023-02-12T14:05:24.497Z,8.54
2023-02-12T14:07:55.540Z,8.69
2023-02-12T14:10:29.613Z,8.13
2023-02-12T14:13:13.192Z,8.53
2023-02-12T14:15:45.850Z,8.41
2023-02-12T14:18:29.030Z,8.63
2023-02-12T14:21:34.574Z,8.67
2023-02-12T14:24:36.692Z,8.41
2023-02-12T14:27:17.225Z,8.63
2023-02-12T14:30:34.897Z,8.57
2023-02-12T14:33:27.924Z,8.53
2023-02-12T14:36:40.380Z,7.96
2023-02-12T14:39:39.304Z,8.01
2023-02-12T14:42:56.322Z,8.28
2023-02-12T14:45:30.336Z,8.29
2023-02-12T14:47:59.365Z,8.19
2023-02-12T14:50:40.045Z,8.18
2023-02-12T14:53:27.676Z,8.04
2023-02-12T14:55:58.022Z,8.24
2023-02-12T14:58:30.787Z,7.98
2023-02-12T15:01:05.814Z,8.17
2023-02-12T15:24:03.107Z,7.91
2023-02-12T15:27:09.168Z,7.89
2023-02-12T15:29:45.110Z,7.82
2023-02-12T15:40:07.062Z,7.78
2023-02-12T15:43:13.882Z,7.54
2023-02-12T15:50:06.575Z,7.46
2023-02-12T15:53:01.164Z,7.56
2023-02-12T16:24:45.089Z,7.15
2023-02-12T16:28:35.791Z,7.35
2023-02-12T16:32:34.549Z,7.32
2023-02-12T16:35:08.757Z,7.24
2023-02-12T16:37:49.077Z,7.27
2023-02-12T16:40:31.142Z,7.28
2023-02-12T16:43:07.842Z,7.25
2023-02-12T16:45:44.106Z,7.24
2023-02-12T16:48:19.614Z,7.24
2023-02-12T16:50:51.572Z,7.33
2023-02-12T16:53:35.743Z,7.18
2023-02-12T16:56:06.676Z,7.25
2023-02-12T16:58:35.099Z,7.22
2023-02-12T17:01:05.471Z,7.19
2023-02-12T17:03:35.300Z,7.13
2023-02-12T17:06:03.957Z,7.11
2023-02-12T17:08:41.445Z,7.03
2023-02-12T17:11:11.501Z,7.07
2023-02-12T17:13:39.964Z,6.97
2023-02-12T17:16:10.053Z,6.94
2023-02-12T17:18:45.770Z,6.94
2023-02-12T17:21:22.455Z,6.85
2023-02-12T17:23:51.114Z,6.81
2023-02-12T17:26:21.455Z,6.79
2023-02-12T17:28:49.941Z,6.75
2023-02-12T17:31:19.430Z,6.69
2023-02-12T17:33:47.860Z,6.62
2023-02-12T17:36:16.481Z,6.56
2023-02-12T17:38:45.176Z,6.58
2023-02-12T17:41:13.552Z,6.52
2023-02-12T17:43:43.486Z,6.44
2023-02-12T17:46:13.141Z,6.43
2023-02-12T17:48:41.789Z,6.33
2023-02-12T17:51:11.526Z,6.37
2023-02-12T17:53:40.090Z,6.47
2023-02-12T17:56:11.650Z,6.40
2023-02-12T17:58:40.533Z,6.42
2023-02-12T18:01:11.891Z,6.36
2023-02-12T18:03:40.553Z,6.27
2023-02-12T18:06:11.001Z,6.23
2023-02-12T18:08:39.913Z,6.22
2023-02-12T18:11:10.072Z,6.19
2023-02-12T18:13:39.295Z,6.24
2023-02-12T18:16:08.712Z,6.22
2023-02-12T18:18:40.061Z,6.12
2023-02-12T18:21:09.709Z,6.15
2023-02-12T18:23:38.657Z,6.16
2023-02-12T18:26:08.701Z,6.06
2023-02-12T18:28:37.353Z,5.97
2023-02-12T18:31:06.911Z,5.89
2023-02-12T18:33:35.784Z,5.82
2023-02-12T18:36:07.890Z,5.74
2023-02-12T18:38:37.395Z,5.69
2023-02-12T18:41:11.893Z,5.71
2023-02-12T18:43:40.647Z,5.51
2023-02-12T18:46:10.435Z,5.40
2023-02-12T18:48:39.022Z,5.22
2023-02-12T18:51:11.512Z,5.20
2023-02-12T18:53:39.951Z,5.20
2023-02-12T18:56:10.146Z,5.02
2023-02-12T18:58:38.871Z,5.08
2023-02-12T19:01:14.176Z,5.07
2023-02-12T19:03:42.679Z,4.98
2023-02-12T19:06:13.070Z,4.90
2023-02-12T19:08:41.648Z,4.88
2023-02-12T19:11:11.639Z,4.91
2023-02-12T19:13:40.290Z,4.86
2023-02-12T19:16:09.307Z,4.73
2023-02-12T19:18:37.790Z,4.68
2023-02-12T19:21:07.822Z,4.70
2023-02-12T19:23:37.778Z,4.58
2023-02-12T19:26:07.336Z,4.51
2023-02-12T19:28:36.060Z,4.52
2023-02-12T19:31:13.550Z,4.50
2023-02-12T19:33:44.652Z,4.47
2023-02-12T19:36:15.984Z,4.47
2023-02-12T19:38:46.046Z,4.50
2023-02-12T19:41:16.929Z,4.43
2023-02-12T19:43:45.883Z,4.44
2023-02-12T19:46:16.962Z,4.37
2023-02-12T19:48:46.621Z,4.24
2023-02-12T19:51:16.157Z,4.09
2023-02-12T19:53:46.234Z,4.04
2023-02-12T19:56:15.229Z,3.95
2023-02-12T19:58:44.188Z,3.86
2023-02-12T20:01:16.246Z,3.64
2023-02-12T20:03:45.636Z,3.63
2023-02-12T20:06:16.153Z,3.55
2023-02-12T20:08:46.231Z,3.47
2023-02-12T20:11:18.282Z,3.24
2023-02-12T20:13:47.201Z,3.29
2023-02-12T20:16:17.804Z,3.29
2023-02-12T20:18:47.951Z,3.32
2023-02-12T20:21:19.775Z,3.25
2023-02-12T20:23:49.873Z,3.18
2023-02-12T20:26:19.548Z,3.17
2023-02-12T20:28:48.646Z,3.01
2023-02-12T20:31:19.265Z,2.96
2023-02-12T20:33:48.286Z,2.81
2023-02-12T20:36:17.925Z,2.64
2023-02-12T20:38:46.264Z,2.58
2023-02-12T20:41:16.543Z,2.38
2023-02-12T20:43:45.461Z,2.28
2023-02-12T20:46:15.933Z,2.16
2023-02-12T20:48:44.894Z,2.09
2023-02-12T20:51:15.670Z,2.09
2023-02-12T20:53:45.010Z,2.03
2023-02-12T20:56:18.830Z,1.98
2023-02-12T20:58:48.064Z,1.77
2023-02-12T21:01:20.979Z,1.65
2023-02-12T21:03:50.926Z,1.51
2023-02-12T21:06:20.602Z,1.46
2023-02-12T21:08:53.274Z,1.49
2023-02-12T21:11:25.172Z,1.38
2023-02-12T21:14:02.527Z,1.29
2023-02-12T21:16:41.095Z,1.23
2023-02-12T21:19:10.212Z,1.24
2023-02-12T21:21:40.883Z,1.08
2023-02-12T21:24:12.296Z,1.19
2023-02-12T21:26:42.018Z,1.29
2023-02-12T21:29:12.823Z,1.07
2023-02-12T21:31:49.591Z,1.06
2023-02-12T21:34:22.526Z,1.11
2023-02-12T21:36:53.223Z,1.02
2023-02-12T21:39:26.000Z,1.02
2023-02-12T21:42:02.753Z,1.06
2023-02-12T21:44:32.612Z,0.94
2023-02-12T21:47:01.019Z,0.72
2023-02-12T21:49:29.673Z,0.64
2023-02-12T21:51:59.640Z,0.67
2023-02-12T21:54:28.997Z,0.43
2023-02-12T21:56:59.666Z,0.46
2023-02-12T21:59:31.784Z,0.40
2023-02-12T22:02:01.644Z,0.40
2023-02-12T22:04:30.639Z,0.39
2023-02-12T22:07:02.848Z,0.36
2023-02-12T22:09:31.675Z,0.32
2023-02-12T22:12:01.509Z,0.33
2023-02-12T22:14:30.109Z,0.36
2023-02-12T22:16:58.610Z,0.22
2023-02-12T22:19:26.942Z,0.11
2023-02-12T22:21:55.327Z,0.04
2023-02-12T22:24:24.451Z,-0.02
2023-02-12T22:26:52.779Z,0.10
2023-02-12T22:29:23.643Z,0.10
2023-02-12T22:31:52.396Z,-0.06
2023-02-12T22:34:20.942Z,-0.09
2023-02-12T22:36:49.507Z,0.01
2023-02-12T22:39:19.341Z,-0.15
2023-02-12T22:41:48.089Z,-0.21
2023-02-12T22:44:20.744Z,-0.28
2023-02-12T22:46:51.060Z,-0.08
2023-02-12T22:49:19.856Z,0.05
2023-02-12T22:51:48.253Z,-0.02
2023-02-12T22:54:18.789Z,-0.06
2023-02-12T22:56:51.292Z,-0.07
2023-02-12T22:59:19.769Z,-0.24
2023-02-12T23:01:48.142Z,-0.45
2023-02-12T23:04:19.890Z,-0.30
2023-02-12T23:06:48.628Z,-0.33
2023-02-12T23:09:18.948Z,-0.30
2023-02-12T23:11:47.691Z,-0.18
2023-02-12T23:14:16.435Z,-0.27
2023-02-12T23:16:44.818Z,-0.29
2023-02-12T23:19:13.924Z,-0.29
2023-02-12T23:21:43.817Z,-0.29
2023-02-12T23:24:14.149Z,-0.30
2023-02-12T23:26:42.714Z,-0.53
2023-02-12T23:29:11.114Z,-0.53
2023-02-12T23:31:39.646Z,-0.58
2023-02-12T23:34:08.103Z,-0.48
2023-02-12T23:36:36.492Z,-0.45
2023-02-12T23:39:06.603Z,-0.51
2023-02-12T23:41:34.937Z,-0.66
2023-02-12T23:44:03.629Z,-0.69
2023-02-12T23:46:32.670Z,-0.65
2023-02-12T23:49:01.036Z,-0.65
2023-02-12T23:51:29.493Z,-0.61
2023-02-12T23:53:57.853Z,-0.60
2023-02-12T23:56:27.681Z,-0.66
2023-02-12T23:58:56.693Z,-0.62
